ZKZAN NZCH-NZWL
Flight info
| Callsign | ZKZAN |
|---|---|
| Flight time | 0h -14m |
| Altitude | 1000 |
| Route | VFR |
| Aircraft | C172/L-V/N |
Departure
| Time | 2026-05-01 08:22 |
|---|---|
| Airport | Christchurch International Airport (NZCH) |
Arrival
| Time | 2026-05-01 08:08 |
|---|---|
| Airport | West Melton Aerodrome (NZWL) |
| Time | Latitude | Longitude | Altitude | Speed | Heading |
|---|---|---|---|---|---|
| 2026-05-01 08:07 | -43.48319 | 172.53041 | 110 ft | 0 kts | 194° |
| 2026-05-01 08:14 | -43.48323 | 172.53040 | 110 ft | 2 kts | 191° |
| 2026-05-01 08:14 | -43.48336 | 172.53033 | 110 ft | 3 kts | 203° |
| 2026-05-01 08:14 | -43.48353 | 172.53024 | 110 ft | 2 kts | 209° |
| 2026-05-01 08:15 | -43.48384 | 172.52995 | 111 ft | 6 kts | 207° |
| 2026-05-01 08:15 | -43.48429 | 172.52960 | 111 ft | 5 kts | 219° |
| 2026-05-01 08:15 | -43.48460 | 172.52924 | 112 ft | 6 kts | 219° |
| 2026-05-01 08:16 | -43.48473 | 172.52907 | 112 ft | 0 kts | 222° |
| 2026-05-01 08:16 | -43.48480 | 172.52899 | 112 ft | 4 kts | 218° |
| 2026-05-01 08:16 | -43.48499 | 172.52889 | 112 ft | 0 kts | 157° |
| 2026-05-01 08:17 | -43.48520 | 172.52913 | 112 ft | 6 kts | 128° |
| 2026-05-01 08:18 | -43.48549 | 172.52963 | 111 ft | 11 kts | 129° |
| 2026-05-01 08:18 | -43.48623 | 172.53082 | 109 ft | 6 kts | 129° |
| 2026-05-01 08:19 | -43.48664 | 172.53149 | 108 ft | 3 kts | 129° |
| 2026-05-01 08:19 | -43.48705 | 172.53218 | 107 ft | 6 kts | 130° |
| 2026-05-01 08:19 | -43.48714 | 172.53232 | 106 ft | 0 kts | 132° |
| 2026-05-01 08:20 | -43.48719 | 172.53241 | 106 ft | 4 kts | 128° |
| 2026-05-01 08:20 | -43.48761 | 172.53308 | 105 ft | 7 kts | 128° |
| 2026-05-01 08:21 | -43.48764 | 172.53366 | 104 ft | 10 kts | 39° |
| 2026-05-01 08:21 | -43.48547 | 172.53616 | 120 ft | 63 kts | 40° |
| 2026-05-01 08:21 | -43.48294 | 172.53903 | 201 ft | 76 kts | 39° |
| 2026-05-01 08:21 | -43.47879 | 172.54366 | 449 ft | 76 kts | 37° |
| 2026-05-01 08:22 | -43.47286 | 172.54797 | 802 ft | 73 kts | 351° |
| 2026-05-01 08:22 | -43.46809 | 172.54480 | 951 ft | 87 kts | 315° |
| 2026-05-01 08:22 | -43.46503 | 172.53738 | 1113 ft | 95 kts | 292° |
| 2026-05-01 08:22 | -43.46372 | 172.53136 | 1205 ft | 100 kts | 284° |
| 2026-05-01 08:23 | -43.46274 | 172.52208 | 1322 ft | 96 kts | 276° |
| 2026-05-01 08:23 | -43.46155 | 172.51282 | 1360 ft | 101 kts | 284° |
| 2026-05-01 08:23 | -43.45994 | 172.50316 | 1378 ft | 104 kts | 285° |
| 2026-05-01 08:23 | -43.45799 | 172.49022 | 1443 ft | 105 kts | 275° |
| 2026-05-01 08:24 | -43.45839 | 172.48009 | 1486 ft | 105 kts | 265° |
| 2026-05-01 08:24 | -43.45895 | 172.46971 | 1460 ft | 109 kts | 268° |
| 2026-05-01 08:24 | -43.45919 | 172.46278 | 1449 ft | 109 kts | 270° |
| 2026-05-01 08:24 | -43.45931 | 172.45248 | 1464 ft | 107 kts | 271° |
| 2026-05-01 08:25 | -43.45926 | 172.44208 | 1453 ft | 108 kts | 272° |
| 2026-05-01 08:25 | -43.45908 | 172.43173 | 1455 ft | 108 kts | 275° |
| 2026-05-01 08:25 | -43.45850 | 172.41800 | 1440 ft | 109 kts | 271° |
| 2026-05-01 08:25 | -43.46039 | 172.40775 | 1381 ft | 114 kts | 243° |
| 2026-05-01 08:26 | -43.46272 | 172.40141 | 1398 ft | 111 kts | 246° |
| 2026-05-01 08:26 | -43.46552 | 172.39156 | 1392 ft | 111 kts | 252° |
| 2026-05-01 08:26 | -43.46775 | 172.38132 | 1333 ft | 111 kts | 257° |
| 2026-05-01 08:26 | -43.46982 | 172.37105 | 1182 ft | 105 kts | 225° |
| 2026-05-01 08:27 | -43.47569 | 172.36844 | 1117 ft | 82 kts | 189° |
| 2026-05-01 08:27 | -43.48202 | 172.36980 | 934 ft | 69 kts | 111° |
| 2026-05-01 08:27 | -43.48154 | 172.37399 | 773 ft | 65 kts | 74° |
| 2026-05-01 08:27 | -43.48098 | 172.37965 | 627 ft | 59 kts | 78° |
| 2026-05-01 08:28 | -43.47929 | 172.38663 | 386 ft | 59 kts | 65° |
| 2026-05-01 08:28 | -43.47806 | 172.39070 | 411 ft | 78 kts | 66° |
| 2026-05-01 08:28 | -43.47580 | 172.39804 | 559 ft | 89 kts | 64° |
| 2026-05-01 08:28 | -43.47208 | 172.40830 | 872 ft | 87 kts | 57° |
| 2026-05-01 08:29 | -43.46999 | 172.41295 | 1018 ft | 88 kts | 51° |
| 2026-05-01 08:29 | -43.46616 | 172.41954 | 1241 ft | 88 kts | 62° |
| 2026-05-01 08:29 | -43.46576 | 172.42809 | 1435 ft | 94 kts | 103° |
| 2026-05-01 08:29 | -43.46950 | 172.43602 | 1553 ft | 104 kts | 131° |
| 2026-05-01 08:30 | -43.47471 | 172.44351 | 1554 ft | 109 kts | 131° |
| 2026-05-01 08:30 | -43.48015 | 172.45111 | 1479 ft | 111 kts | 134° |
| 2026-05-01 08:30 | -43.48758 | 172.46080 | 1408 ft | 109 kts | 134° |
| 2026-05-01 08:30 | -43.49114 | 172.46570 | 1390 ft | 107 kts | 133° |
| 2026-05-01 08:31 | -43.49728 | 172.47397 | 1320 ft | 108 kts | 133° |
| 2026-05-01 08:31 | -43.50080 | 172.47881 | 1299 ft | 107 kts | 134° |
| 2026-05-01 08:31 | -43.50544 | 172.48531 | 1268 ft | 82 kts | 130° |
| 2026-05-01 08:31 | -43.50801 | 172.49165 | 1121 ft | 71 kts | 100° |
| 2026-05-01 08:32 | -43.50824 | 172.50001 | 897 ft | 64 kts | 84° |
| 2026-05-01 08:32 | -43.50737 | 172.50583 | 725 ft | 61 kts | 69° |
| 2026-05-01 08:32 | -43.50630 | 172.50941 | 607 ft | 61 kts | 62° |
| 2026-05-01 08:32 | -43.50400 | 172.51427 | 449 ft | 61 kts | 47° |
| 2026-05-01 08:33 | -43.50101 | 172.51820 | 304 ft | 58 kts | 40° |
| 2026-05-01 08:33 | -43.49793 | 172.52173 | 212 ft | 58 kts | 39° |
| 2026-05-01 08:33 | -43.49485 | 172.52530 | 139 ft | 56 kts | 39° |
| 2026-05-01 08:33 | -43.49171 | 172.52896 | 110 ft | 30 kts | 40° |
| 2026-05-01 08:34 | -43.49079 | 172.53001 | 108 ft | 22 kts | 39° |
| 2026-05-01 08:34 | -43.48982 | 172.53113 | 106 ft | 14 kts | 40° |
| 2026-05-01 08:34 | -43.48921 | 172.53181 | 106 ft | 8 kts | 38° |
| 2026-05-01 08:34 | -43.48866 | 172.53247 | 105 ft | 11 kts | 39° |
| 2026-05-01 08:35 | -43.48811 | 172.53310 | 105 ft | 7 kts | 41° |
| 2026-05-01 08:35 | -43.48768 | 172.53317 | 104 ft | 5 kts | 317° |
| 2026-05-01 08:35 | -43.48750 | 172.53290 | 105 ft | 5 kts | 310° |
| 2026-05-01 08:35 | -43.48719 | 172.53242 | 106 ft | 7 kts | 310° |
| 2026-05-01 08:36 | -43.48688 | 172.53189 | 107 ft | 7 kts | 307° |
| 2026-05-01 08:36 | -43.48655 | 172.53137 | 108 ft | 7 kts | 309° |
| 2026-05-01 08:36 | -43.48608 | 172.53061 | 109 ft | 8 kts | 307° |
| 2026-05-01 08:36 | -43.48582 | 172.53020 | 110 ft | 8 kts | 311° |
| 2026-05-01 08:37 | -43.48535 | 172.52946 | 111 ft | 5 kts | 342° |
| 2026-05-01 08:37 | -43.48504 | 172.52969 | 111 ft | 5 kts | 39° |
| 2026-05-01 08:37 | -43.48485 | 172.52991 | 111 ft | 5 kts | 37° |
| 2026-05-01 08:37 | -43.48454 | 172.53026 | 110 ft | 5 kts | 40° |
| 2026-05-01 08:38 | -43.48418 | 172.53046 | 110 ft | 4 kts | 10° |
| 2026-05-01 08:38 | -43.48395 | 172.53067 | 110 ft | 3 kts | 37° |
| 2026-05-01 08:38 | -43.48392 | 172.53070 | 110 ft | 0 kts | 38° |